sensor_id;sensor_type;location;lat;lon;timestamp;P1;durP1;ratioP1;P2;durP2;ratioP2
3133;SDS011;1577;49.912;10.924;2023-06-26T00:00:24;26.93;;;4.20;;
3133;SDS011;1577;49.912;10.924;2023-06-26T00:02:49;26.23;;;4.57;;
3133;SDS011;1577;49.912;10.924;2023-06-26T00:05:15;26.00;;;4.77;;
3133;SDS011;1577;49.912;10.924;2023-06-26T00:07:40;26.70;;;4.30;;
3133;SDS011;1577;49.912;10.924;2023-06-26T00:10:06;26.60;;;4.93;;
3133;SDS011;1577;49.912;10.924;2023-06-26T00:12:32;26.90;;;5.17;;
3133;SDS011;1577;49.912;10.924;2023-06-26T00:14:58;28.20;;;5.90;;
3133;SDS011;1577;49.912;10.924;2023-06-26T00:17:23;28.60;;;6.20;;
3133;SDS011;1577;49.912;10.924;2023-06-26T00:19:49;27.07;;;5.20;;
3133;SDS011;1577;49.912;10.924;2023-06-26T00:22:15;29.50;;;5.33;;
3133;SDS011;1577;49.912;10.924;2023-06-26T00:24:41;28.73;;;5.90;;
3133;SDS011;1577;49.912;10.924;2023-06-26T00:27:06;27.17;;;5.50;;
3133;SDS011;1577;49.912;10.924;2023-06-26T00:29:32;28.50;;;6.37;;
3133;SDS011;1577;49.912;10.924;2023-06-26T00:31:58;28.07;;;5.90;;
3133;SDS011;1577;49.912;10.924;2023-06-26T00:34:23;28.17;;;5.60;;
3133;SDS011;1577;49.912;10.924;2023-06-26T00:36:49;27.73;;;5.97;;
3133;SDS011;1577;49.912;10.924;2023-06-26T00:39:14;28.23;;;5.60;;
3133;SDS011;1577;49.912;10.924;2023-06-26T00:41:40;28.00;;;5.90;;
3133;SDS011;1577;49.912;10.924;2023-06-26T00:44:06;29.10;;;5.83;;
3133;SDS011;1577;49.912;10.924;2023-06-26T00:46:32;28.53;;;5.80;;
3133;SDS011;1577;49.912;10.924;2023-06-26T00:48:59;27.57;;;5.93;;
3133;SDS011;1577;49.912;10.924;2023-06-26T00:51:27;28.70;;;5.87;;
3133;SDS011;1577;49.912;10.924;2023-06-26T00:53:54;28.77;;;5.90;;
3133;SDS011;1577;49.912;10.924;2023-06-26T00:56:20;28.80;;;6.47;;
3133;SDS011;1577;49.912;10.924;2023-06-26T00:58:46;28.73;;;6.30;;
3133;SDS011;1577;49.912;10.924;2023-06-26T01:01:12;27.10;;;5.73;;
3133;SDS011;1577;49.912;10.924;2023-06-26T01:03:42;28.90;;;6.17;;
3133;SDS011;1577;49.912;10.924;2023-06-26T01:06:09;29.20;;;6.17;;
3133;SDS011;1577;49.912;10.924;2023-06-26T01:08:38;27.00;;;5.57;;
3133;SDS011;1577;49.912;10.924;2023-06-26T01:11:05;27.60;;;5.33;;
3133;SDS011;1577;49.912;10.924;2023-06-26T01:13:31;31.03;;;6.03;;
3133;SDS011;1577;49.912;10.924;2023-06-26T01:15:58;28.37;;;5.83;;
3133;SDS011;1577;49.912;10.924;2023-06-26T01:18:25;28.10;;;5.47;;
3133;SDS011;1577;49.912;10.924;2023-06-26T01:20:51;27.70;;;5.80;;
3133;SDS011;1577;49.912;10.924;2023-06-26T01:23:24;27.10;;;5.00;;
3133;SDS011;1577;49.912;10.924;2023-06-26T01:28:31;28.10;;;5.63;;
3133;SDS011;1577;49.912;10.924;2023-06-26T01:30:58;27.90;;;5.67;;
3133;SDS011;1577;49.912;10.924;2023-06-26T01:33:25;29.40;;;6.20;;
3133;SDS011;1577;49.912;10.924;2023-06-26T01:35:51;29.00;;;5.80;;
3133;SDS011;1577;49.912;10.924;2023-06-26T01:38:20;27.73;;;6.00;;
3133;SDS011;1577;49.912;10.924;2023-06-26T01:40:50;27.70;;;6.33;;
3133;SDS011;1577;49.912;10.924;2023-06-26T01:43:27;29.00;;;6.67;;
3133;SDS011;1577;49.912;10.924;2023-06-26T01:45:55;27.67;;;5.93;;
3133;SDS011;1577;49.912;10.924;2023-06-26T01:48:28;29.10;;;6.10;;
3133;SDS011;1577;49.912;10.924;2023-06-26T01:50:58;30.27;;;5.97;;
3133;SDS011;1577;49.912;10.924;2023-06-26T01:53:25;29.47;;;6.07;;
3133;SDS011;1577;49.912;10.924;2023-06-26T01:55:59;29.37;;;6.43;;
3133;SDS011;1577;49.912;10.924;2023-06-26T01:58:30;27.67;;;5.93;;
3133;SDS011;1577;49.912;10.924;2023-06-26T02:00:58;28.20;;;6.23;;
3133;SDS011;1577;49.912;10.924;2023-06-26T02:03:24;26.83;;;5.37;;
3133;SDS011;1577;49.912;10.924;2023-06-26T02:05:50;29.97;;;7.33;;
3133;SDS011;1577;49.912;10.924;2023-06-26T02:08:16;28.93;;;6.53;;
3133;SDS011;1577;49.912;10.924;2023-06-26T02:10:41;29.90;;;6.30;;
3133;SDS011;1577;49.912;10.924;2023-06-26T02:13:07;28.93;;;6.80;;
3133;SDS011;1577;49.912;10.924;2023-06-26T02:15:33;27.07;;;5.70;;
3133;SDS011;1577;49.912;10.924;2023-06-26T02:17:58;28.20;;;5.70;;
3133;SDS011;1577;49.912;10.924;2023-06-26T02:20:24;27.47;;;5.90;;
3133;SDS011;1577;49.912;10.924;2023-06-26T02:22:49;29.10;;;6.10;;
3133;SDS011;1577;49.912;10.924;2023-06-26T02:25:15;30.20;;;5.40;;
3133;SDS011;1577;49.912;10.924;2023-06-26T02:27:42;28.20;;;5.73;;
3133;SDS011;1577;49.912;10.924;2023-06-26T02:30:08;28.40;;;6.20;;
3133;SDS011;1577;49.912;10.924;2023-06-26T02:32:34;29.97;;;6.37;;
3133;SDS011;1577;49.912;10.924;2023-06-26T02:35:00;29.00;;;6.23;;
3133;SDS011;1577;49.912;10.924;2023-06-26T02:37:26;31.07;;;6.40;;
3133;SDS011;1577;49.912;10.924;2023-06-26T02:39:51;28.17;;;6.17;;
3133;SDS011;1577;49.912;10.924;2023-06-26T02:42:17;28.57;;;6.30;;
3133;SDS011;1577;49.912;10.924;2023-06-26T02:44:42;28.20;;;6.00;;
3133;SDS011;1577;49.912;10.924;2023-06-26T02:47:08;28.70;;;6.60;;
3133;SDS011;1577;49.912;10.924;2023-06-26T02:49:33;30.27;;;6.00;;
3133;SDS011;1577;49.912;10.924;2023-06-26T02:51:59;28.13;;;5.73;;
3133;SDS011;1577;49.912;10.924;2023-06-26T02:54:24;28.27;;;6.60;;
3133;SDS011;1577;49.912;10.924;2023-06-26T02:56:50;30.00;;;6.63;;
3133;SDS011;1577;49.912;10.924;2023-06-26T02:59:16;27.93;;;6.33;;
3133;SDS011;1577;49.912;10.924;2023-06-26T03:01:41;28.60;;;6.27;;
3133;SDS011;1577;49.912;10.924;2023-06-26T03:04:07;27.63;;;6.27;;
3133;SDS011;1577;49.912;10.924;2023-06-26T03:06:33;28.17;;;5.90;;
3133;SDS011;1577;49.912;10.924;2023-06-26T03:08:58;28.67;;;6.20;;
3133;SDS011;1577;49.912;10.924;2023-06-26T03:11:24;27.80;;;6.30;;
3133;SDS011;1577;49.912;10.924;2023-06-26T03:13:49;29.83;;;6.10;;
3133;SDS011;1577;49.912;10.924;2023-06-26T03:16:15;28.10;;;5.90;;
3133;SDS011;1577;49.912;10.924;2023-06-26T03:18:41;28.47;;;6.00;;
3133;SDS011;1577;49.912;10.924;2023-06-26T03:21:06;27.03;;;5.83;;
3133;SDS011;1577;49.912;10.924;2023-06-26T03:23:34;29.23;;;6.30;;
3133;SDS011;1577;49.912;10.924;2023-06-26T03:25:59;29.80;;;5.90;;
3133;SDS011;1577;49.912;10.924;2023-06-26T03:28:25;30.60;;;6.07;;
3133;SDS011;1577;49.912;10.924;2023-06-26T03:30:50;27.97;;;6.03;;
3133;SDS011;1577;49.912;10.924;2023-06-26T03:33:16;28.97;;;6.03;;
3133;SDS011;1577;49.912;10.924;2023-06-26T03:35:41;27.97;;;5.80;;
3133;SDS011;1577;49.912;10.924;2023-06-26T03:38:07;29.27;;;6.67;;
3133;SDS011;1577;49.912;10.924;2023-06-26T03:40:33;28.40;;;5.70;;
3133;SDS011;1577;49.912;10.924;2023-06-26T03:42:58;29.40;;;7.43;;
3133;SDS011;1577;49.912;10.924;2023-06-26T03:45:24;28.80;;;6.30;;
3133;SDS011;1577;49.912;10.924;2023-06-26T03:47:49;29.67;;;6.60;;
3133;SDS011;1577;49.912;10.924;2023-06-26T03:50:15;29.40;;;6.10;;
3133;SDS011;1577;49.912;10.924;2023-06-26T03:52:41;32.60;;;7.10;;
3133;SDS011;1577;49.912;10.924;2023-06-26T03:55:07;28.00;;;6.20;;
3133;SDS011;1577;49.912;10.924;2023-06-26T03:57:33;29.33;;;6.60;;
3133;SDS011;1577;49.912;10.924;2023-06-26T03:59:59;28.53;;;6.50;;
3133;SDS011;1577;49.912;10.924;2023-06-26T04:02:24;28.20;;;5.97;;
3133;SDS011;1577;49.912;10.924;2023-06-26T04:04:50;31.17;;;6.40;;
3133;SDS011;1577;49.912;10.924;2023-06-26T04:07:17;28.20;;;5.80;;
3133;SDS011;1577;49.912;10.924;2023-06-26T04:09:44;28.27;;;6.77;;
3133;SDS011;1577;49.912;10.924;2023-06-26T04:12:09;30.10;;;6.30;;
3133;SDS011;1577;49.912;10.924;2023-06-26T04:14:35;30.60;;;6.70;;
3133;SDS011;1577;49.912;10.924;2023-06-26T04:17:00;31.50;;;6.93;;
3133;SDS011;1577;49.912;10.924;2023-06-26T04:19:29;28.77;;;6.30;;
3133;SDS011;1577;49.912;10.924;2023-06-26T04:21:55;26.77;;;5.83;;
3133;SDS011;1577;49.912;10.924;2023-06-26T04:24:21;30.80;;;6.70;;
3133;SDS011;1577;49.912;10.924;2023-06-26T04:26:46;30.83;;;6.47;;
3133;SDS011;1577;49.912;10.924;2023-06-26T04:29:12;27.97;;;6.40;;
3133;SDS011;1577;49.912;10.924;2023-06-26T04:31:38;28.60;;;5.80;;
3133;SDS011;1577;49.912;10.924;2023-06-26T04:34:04;30.23;;;5.53;;
3133;SDS011;1577;49.912;10.924;2023-06-26T04:36:30;27.37;;;6.10;;
3133;SDS011;1577;49.912;10.924;2023-06-26T04:38:56;28.77;;;6.13;;
3133;SDS011;1577;49.912;10.924;2023-06-26T04:41:23;31.00;;;7.07;;
3133;SDS011;1577;49.912;10.924;2023-06-26T04:43:49;27.83;;;5.20;;
3133;SDS011;1577;49.912;10.924;2023-06-26T04:46:15;26.90;;;5.20;;
3133;SDS011;1577;49.912;10.924;2023-06-26T04:48:41;27.53;;;5.80;;
3133;SDS011;1577;49.912;10.924;2023-06-26T04:51:07;29.03;;;6.50;;
3133;SDS011;1577;49.912;10.924;2023-06-26T04:53:33;30.70;;;5.83;;
3133;SDS011;1577;49.912;10.924;2023-06-26T04:55:58;28.80;;;6.37;;
3133;SDS011;1577;49.912;10.924;2023-06-26T04:58:24;28.30;;;6.43;;
3133;SDS011;1577;49.912;10.924;2023-06-26T05:00:49;29.07;;;6.00;;
3133;SDS011;1577;49.912;10.924;2023-06-26T05:03:16;29.43;;;5.30;;
3133;SDS011;1577;49.912;10.924;2023-06-26T05:05:42;30.43;;;6.17;;
3133;SDS011;1577;49.912;10.924;2023-06-26T05:10:41;28.50;;;5.40;;
3133;SDS011;1577;49.912;10.924;2023-06-26T05:13:07;29.70;;;5.57;;
3133;SDS011;1577;49.912;10.924;2023-06-26T05:15:32;31.13;;;5.63;;
3133;SDS011;1577;49.912;10.924;2023-06-26T05:17:58;28.00;;;5.60;;
3133;SDS011;1577;49.912;10.924;2023-06-26T05:20:24;28.67;;;5.30;;
3133;SDS011;1577;49.912;10.924;2023-06-26T05:22:49;31.60;;;5.27;;
3133;SDS011;1577;49.912;10.924;2023-06-26T05:25:15;31.60;;;6.07;;
3133;SDS011;1577;49.912;10.924;2023-06-26T05:27:43;26.70;;;5.43;;
3133;SDS011;1577;49.912;10.924;2023-06-26T05:30:09;28.43;;;5.67;;
3133;SDS011;1577;49.912;10.924;2023-06-26T05:32:37;27.20;;;5.00;;
3133;SDS011;1577;49.912;10.924;2023-06-26T05:35:05;27.40;;;5.10;;
3133;SDS011;1577;49.912;10.924;2023-06-26T05:37:33;27.37;;;5.50;;
3133;SDS011;1577;49.912;10.924;2023-06-26T05:39:59;28.93;;;4.53;;
3133;SDS011;1577;49.912;10.924;2023-06-26T05:42:26;27.03;;;5.10;;
3133;SDS011;1577;49.912;10.924;2023-06-26T05:44:53;26.57;;;4.53;;
3133;SDS011;1577;49.912;10.924;2023-06-26T05:47:19;28.20;;;5.13;;
3133;SDS011;1577;49.912;10.924;2023-06-26T05:49:44;26.43;;;4.33;;
3133;SDS011;1577;49.912;10.924;2023-06-26T05:52:10;29.03;;;4.93;;
3133;SDS011;1577;49.912;10.924;2023-06-26T05:54:36;28.00;;;5.03;;
3133;SDS011;1577;49.912;10.924;2023-06-26T05:57:02;28.37;;;4.90;;
3133;SDS011;1577;49.912;10.924;2023-06-26T05:59:30;29.30;;;4.67;;
3133;SDS011;1577;49.912;10.924;2023-06-26T06:01:56;27.27;;;4.90;;
3133;SDS011;1577;49.912;10.924;2023-06-26T06:04:22;25.70;;;4.30;;
3133;SDS011;1577;49.912;10.924;2023-06-26T06:06:48;28.07;;;4.87;;
3133;SDS011;1577;49.912;10.924;2023-06-26T06:09:13;25.40;;;4.13;;
3133;SDS011;1577;49.912;10.924;2023-06-26T06:11:39;26.80;;;4.30;;
3133;SDS011;1577;49.912;10.924;2023-06-26T06:14:05;27.00;;;4.63;;
3133;SDS011;1577;49.912;10.924;2023-06-26T06:16:30;25.83;;;4.03;;
3133;SDS011;1577;49.912;10.924;2023-06-26T06:18:56;25.77;;;4.10;;
3133;SDS011;1577;49.912;10.924;2023-06-26T06:21:21;29.60;;;5.03;;
3133;SDS011;1577;49.912;10.924;2023-06-26T06:23:47;25.70;;;4.07;;
3133;SDS011;1577;49.912;10.924;2023-06-26T06:26:12;26.00;;;4.00;;
3133;SDS011;1577;49.912;10.924;2023-06-26T06:28:38;26.27;;;4.00;;
3133;SDS011;1577;49.912;10.924;2023-06-26T06:31:04;27.20;;;4.47;;
3133;SDS011;1577;49.912;10.924;2023-06-26T06:33:30;25.37;;;4.00;;
3133;SDS011;1577;49.912;10.924;2023-06-26T06:35:55;29.60;;;4.70;;
3133;SDS011;1577;49.912;10.924;2023-06-26T06:38:21;27.93;;;4.40;;
3133;SDS011;1577;49.912;10.924;2023-06-26T06:40:47;27.27;;;4.43;;
3133;SDS011;1577;49.912;10.924;2023-06-26T06:43:13;27.17;;;4.00;;
3133;SDS011;1577;49.912;10.924;2023-06-26T06:45:38;25.80;;;4.00;;
3133;SDS011;1577;49.912;10.924;2023-06-26T06:48:04;25.57;;;3.43;;
3133;SDS011;1577;49.912;10.924;2023-06-26T06:50:30;26.00;;;3.90;;
3133;SDS011;1577;49.912;10.924;2023-06-26T06:52:56;26.40;;;4.00;;
3133;SDS011;1577;49.912;10.924;2023-06-26T06:55:22;29.33;;;3.90;;
3133;SDS011;1577;49.912;10.924;2023-06-26T06:57:48;25.50;;;3.70;;
3133;SDS011;1577;49.912;10.924;2023-06-26T07:00:15;25.10;;;3.77;;
3133;SDS011;1577;49.912;10.924;2023-06-26T07:02:42;26.17;;;3.77;;
3133;SDS011;1577;49.912;10.924;2023-06-26T07:05:09;24.97;;;3.83;;
3133;SDS011;1577;49.912;10.924;2023-06-26T07:07:35;24.73;;;3.90;;
3133;SDS011;1577;49.912;10.924;2023-06-26T07:10:09;27.10;;;4.00;;
3133;SDS011;1577;49.912;10.924;2023-06-26T07:12:36;25.53;;;3.27;;
3133;SDS011;1577;49.912;10.924;2023-06-26T07:15:02;25.10;;;3.83;;
3133;SDS011;1577;49.912;10.924;2023-06-26T07:17:29;24.90;;;4.33;;
3133;SDS011;1577;49.912;10.924;2023-06-26T07:19:55;23.03;;;3.33;;
3133;SDS011;1577;49.912;10.924;2023-06-26T07:22:21;23.70;;;3.63;;
3133;SDS011;1577;49.912;10.924;2023-06-26T07:24:47;24.53;;;3.73;;
3133;SDS011;1577;49.912;10.924;2023-06-26T07:27:16;23.87;;;3.50;;
3133;SDS011;1577;49.912;10.924;2023-06-26T07:29:43;24.50;;;3.60;;
3133;SDS011;1577;49.912;10.924;2023-06-26T07:32:08;22.80;;;3.30;;
3133;SDS011;1577;49.912;10.924;2023-06-26T07:34:34;23.40;;;3.80;;
3133;SDS011;1577;49.912;10.924;2023-06-26T07:37:00;23.50;;;3.50;;
3133;SDS011;1577;49.912;10.924;2023-06-26T07:39:25;24.00;;;3.70;;
3133;SDS011;1577;49.912;10.924;2023-06-26T07:41:51;22.97;;;3.23;;
3133;SDS011;1577;49.912;10.924;2023-06-26T07:44:17;23.30;;;3.90;;
3133;SDS011;1577;49.912;10.924;2023-06-26T07:46:42;22.67;;;3.10;;
3133;SDS011;1577;49.912;10.924;2023-06-26T07:49:09;22.90;;;3.30;;
3133;SDS011;1577;49.912;10.924;2023-06-26T07:51:35;23.83;;;3.87;;
3133;SDS011;1577;49.912;10.924;2023-06-26T07:54:01;25.53;;;3.50;;
3133;SDS011;1577;49.912;10.924;2023-06-26T07:56:26;25.93;;;4.00;;
3133;SDS011;1577;49.912;10.924;2023-06-26T07:58:52;24.83;;;3.90;;
3133;SDS011;1577;49.912;10.924;2023-06-26T08:01:17;23.37;;;3.60;;
3133;SDS011;1577;49.912;10.924;2023-06-26T08:03:43;23.30;;;3.40;;
3133;SDS011;1577;49.912;10.924;2023-06-26T08:06:09;22.43;;;3.30;;
3133;SDS011;1577;49.912;10.924;2023-06-26T08:08:35;21.10;;;3.60;;
3133;SDS011;1577;49.912;10.924;2023-06-26T08:11:00;21.40;;;3.60;;
3133;SDS011;1577;49.912;10.924;2023-06-26T08:13:26;22.02;;;3.55;;
3133;SDS011;1577;49.912;10.924;2023-06-26T08:15:51;21.50;;;3.85;;
3133;SDS011;1577;49.912;10.924;2023-06-26T08:18:17;22.00;;;3.83;;
3133;SDS011;1577;49.912;10.924;2023-06-26T08:20:43;23.35;;;3.30;;
3133;SDS011;1577;49.912;10.924;2023-06-26T08:23:09;21.00;;;3.83;;
3133;SDS011;1577;49.912;10.924;2023-06-26T08:25:34;21.13;;;3.40;;
3133;SDS011;1577;49.912;10.924;2023-06-26T08:28:03;22.13;;;4.20;;
3133;SDS011;1577;49.912;10.924;2023-06-26T08:30:29;23.00;;;3.95;;
3133;SDS011;1577;49.912;10.924;2023-06-26T08:32:57;21.35;;;3.90;;
3133;SDS011;1577;49.912;10.924;2023-06-26T08:35:23;21.50;;;4.03;;
3133;SDS011;1577;49.912;10.924;2023-06-26T08:37:49;21.30;;;4.15;;
3133;SDS011;1577;49.912;10.924;2023-06-26T08:40:16;21.05;;;3.50;;
3133;SDS011;1577;49.912;10.924;2023-06-26T08:42:43;24.35;;;4.18;;
3133;SDS011;1577;49.912;10.924;2023-06-26T08:45:09;22.63;;;3.88;;
3133;SDS011;1577;49.912;10.924;2023-06-26T08:47:35;22.25;;;4.18;;
3133;SDS011;1577;49.912;10.924;2023-06-26T08:50:12;22.02;;;4.15;;
3133;SDS011;1577;49.912;10.924;2023-06-26T08:55:23;23.17;;;3.92;;
3133;SDS011;1577;49.912;10.924;2023-06-26T08:57:51;21.95;;;4.13;;
3133;SDS011;1577;49.912;10.924;2023-06-26T09:00:18;22.80;;;4.10;;
3133;SDS011;1577;49.912;10.924;2023-06-26T09:02:45;22.98;;;4.05;;
3133;SDS011;1577;49.912;10.924;2023-06-26T09:05:10;22.27;;;3.85;;
3133;SDS011;1577;49.912;10.924;2023-06-26T09:07:36;21.23;;;3.83;;
3133;SDS011;1577;49.912;10.924;2023-06-26T09:10:02;21.55;;;3.80;;
3133;SDS011;1577;49.912;10.924;2023-06-26T09:12:27;22.00;;;4.05;;
3133;SDS011;1577;49.912;10.924;2023-06-26T09:14:54;22.42;;;4.93;;
3133;SDS011;1577;49.912;10.924;2023-06-26T09:17:24;25.15;;;4.10;;
3133;SDS011;1577;49.912;10.924;2023-06-26T09:19:51;21.63;;;4.20;;
3133;SDS011;1577;49.912;10.924;2023-06-26T09:22:17;22.25;;;4.50;;
3133;SDS011;1577;49.912;10.924;2023-06-26T09:24:43;21.58;;;3.95;;
3133;SDS011;1577;49.912;10.924;2023-06-26T09:27:09;23.05;;;4.68;;
3133;SDS011;1577;49.912;10.924;2023-06-26T09:29:36;22.33;;;4.07;;
3133;SDS011;1577;49.912;10.924;2023-06-26T09:32:02;21.33;;;4.15;;
3133;SDS011;1577;49.912;10.924;2023-06-26T09:34:32;22.30;;;3.97;;
3133;SDS011;1577;49.912;10.924;2023-06-26T09:36:58;21.40;;;3.45;;
3133;SDS011;1577;49.912;10.924;2023-06-26T09:39:29;21.48;;;3.83;;
3133;SDS011;1577;49.912;10.924;2023-06-26T09:41:55;21.95;;;4.00;;
3133;SDS011;1577;49.912;10.924;2023-06-26T09:44:22;21.97;;;3.80;;
3133;SDS011;1577;49.912;10.924;2023-06-26T09:46:48;22.10;;;4.33;;
3133;SDS011;1577;49.912;10.924;2023-06-26T09:49:14;21.80;;;3.93;;
3133;SDS011;1577;49.912;10.924;2023-06-26T09:51:40;23.30;;;3.90;;
3133;SDS011;1577;49.912;10.924;2023-06-26T09:54:07;22.13;;;4.27;;
3133;SDS011;1577;49.912;10.924;2023-06-26T09:56:33;21.30;;;3.50;;
3133;SDS011;1577;49.912;10.924;2023-06-26T09:59:00;22.53;;;3.83;;
3133;SDS011;1577;49.912;10.924;2023-06-26T10:01:29;22.93;;;4.33;;
3133;SDS011;1577;49.912;10.924;2023-06-26T10:03:56;24.17;;;4.20;;
3133;SDS011;1577;49.912;10.924;2023-06-26T10:06:24;23.40;;;4.17;;
3133;SDS011;1577;49.912;10.924;2023-06-26T10:09:01;23.73;;;4.23;;
3133;SDS011;1577;49.912;10.924;2023-06-26T10:11:36;22.93;;;3.80;;
3133;SDS011;1577;49.912;10.924;2023-06-26T10:14:08;23.53;;;4.10;;
3133;SDS011;1577;49.912;10.924;2023-06-26T10:16:36;22.70;;;3.83;;
3133;SDS011;1577;49.912;10.924;2023-06-26T10:19:04;23.30;;;4.20;;
3133;SDS011;1577;49.912;10.924;2023-06-26T10:21:33;23.30;;;4.10;;
3133;SDS011;1577;49.912;10.924;2023-06-26T10:23:59;24.43;;;4.60;;
3133;SDS011;1577;49.912;10.924;2023-06-26T10:26:27;24.20;;;5.00;;
3133;SDS011;1577;49.912;10.924;2023-06-26T10:28:54;23.37;;;4.40;;
3133;SDS011;1577;49.912;10.924;2023-06-26T10:31:21;24.20;;;4.33;;
3133;SDS011;1577;49.912;10.924;2023-06-26T10:33:51;24.17;;;4.70;;
3133;SDS011;1577;49.912;10.924;2023-06-26T10:36:18;23.70;;;4.40;;
3133;SDS011;1577;49.912;10.924;2023-06-26T10:41:19;23.40;;;4.07;;
3133;SDS011;1577;49.912;10.924;2023-06-26T10:43:48;23.60;;;4.43;;
3133;SDS011;1577;49.912;10.924;2023-06-26T10:46:15;23.60;;;4.03;;
3133;SDS011;1577;49.912;10.924;2023-06-26T10:48:56;27.00;;;4.40;;
3133;SDS011;1577;49.912;10.924;2023-06-26T10:51:23;23.60;;;4.03;;
3133;SDS011;1577;49.912;10.924;2023-06-26T10:53:53;23.47;;;3.40;;
3133;SDS011;1577;49.912;10.924;2023-06-26T10:56:19;24.80;;;3.90;;
3133;SDS011;1577;49.912;10.924;2023-06-26T10:58:45;23.37;;;3.83;;
3133;SDS011;1577;49.912;10.924;2023-06-26T11:06:27;22.80;;;3.83;;
3133;SDS011;1577;49.912;10.924;2023-06-26T11:08:54;22.37;;;3.47;;
3133;SDS011;1577;49.912;10.924;2023-06-26T11:14:20;23.47;;;3.80;;
3133;SDS011;1577;49.912;10.924;2023-06-26T11:16:49;24.40;;;4.10;;
3133;SDS011;1577;49.912;10.924;2023-06-26T11:19:16;26.90;;;3.70;;
3133;SDS011;1577;49.912;10.924;2023-06-26T11:21:43;24.27;;;3.47;;
3133;SDS011;1577;49.912;10.924;2023-06-26T11:24:09;23.13;;;3.13;;
3133;SDS011;1577;49.912;10.924;2023-06-26T11:26:39;22.83;;;3.40;;
3133;SDS011;1577;49.912;10.924;2023-06-26T11:29:06;23.00;;;3.57;;
3133;SDS011;1577;49.912;10.924;2023-06-26T11:31:32;23.50;;;3.27;;
3133;SDS011;1577;49.912;10.924;2023-06-26T11:34:00;22.47;;;3.30;;
3133;SDS011;1577;49.912;10.924;2023-06-26T11:36:27;23.30;;;3.77;;
3133;SDS011;1577;49.912;10.924;2023-06-26T11:38:57;22.57;;;3.20;;
3133;SDS011;1577;49.912;10.924;2023-06-26T11:41:25;23.20;;;3.60;;
3133;SDS011;1577;49.912;10.924;2023-06-26T11:43:52;22.13;;;2.87;;
3133;SDS011;1577;49.912;10.924;2023-06-26T11:46:19;23.80;;;3.40;;
3133;SDS011;1577;49.912;10.924;2023-06-26T11:48:45;22.40;;;3.20;;
3133;SDS011;1577;49.912;10.924;2023-06-26T11:51:14;22.63;;;3.30;;
3133;SDS011;1577;49.912;10.924;2023-06-26T11:53:44;23.47;;;3.70;;
3133;SDS011;1577;49.912;10.924;2023-06-26T11:56:11;23.40;;;4.10;;
3133;SDS011;1577;49.912;10.924;2023-06-26T11:58:56;22.53;;;3.33;;
3133;SDS011;1577;49.912;10.924;2023-06-26T12:01:37;22.50;;;3.10;;
3133;SDS011;1577;49.912;10.924;2023-06-26T12:04:10;22.80;;;3.60;;
3133;SDS011;1577;49.912;10.924;2023-06-26T12:06:37;22.77;;;3.53;;
3133;SDS011;1577;49.912;10.924;2023-06-26T12:09:05;22.53;;;3.20;;
3133;SDS011;1577;49.912;10.924;2023-06-26T12:11:36;23.00;;;3.80;;
3133;SDS011;1577;49.912;10.924;2023-06-26T12:14:04;24.77;;;3.53;;
3133;SDS011;1577;49.912;10.924;2023-06-26T12:16:31;23.07;;;3.30;;
3133;SDS011;1577;49.912;10.924;2023-06-26T12:19:07;22.43;;;2.90;;
3133;SDS011;1577;49.912;10.924;2023-06-26T12:23:59;22.60;;;3.37;;
3133;SDS011;1577;49.912;10.924;2023-06-26T12:26:26;23.60;;;3.20;;
3133;SDS011;1577;49.912;10.924;2023-06-26T12:28:53;22.10;;;3.20;;
3133;SDS011;1577;49.912;10.924;2023-06-26T12:31:20;23.50;;;3.40;;
3133;SDS011;1577;49.912;10.924;2023-06-26T12:33:46;27.83;;;3.60;;
3133;SDS011;1577;49.912;10.924;2023-06-26T12:36:14;22.83;;;3.00;;
3133;SDS011;1577;49.912;10.924;2023-06-26T12:38:44;23.70;;;3.53;;
3133;SDS011;1577;49.912;10.924;2023-06-26T12:41:14;22.70;;;3.47;;
3133;SDS011;1577;49.912;10.924;2023-06-26T12:43:40;23.30;;;3.77;;
3133;SDS011;1577;49.912;10.924;2023-06-26T12:46:06;23.10;;;3.63;;
3133;SDS011;1577;49.912;10.924;2023-06-26T12:48:41;22.73;;;3.70;;
3133;SDS011;1577;49.912;10.924;2023-06-26T12:51:15;23.80;;;4.20;;
3133;SDS011;1577;49.912;10.924;2023-06-26T12:53:42;22.63;;;3.57;;
3133;SDS011;1577;49.912;10.924;2023-06-26T12:56:08;23.63;;;3.40;;
3133;SDS011;1577;49.912;10.924;2023-06-26T12:58:35;23.30;;;4.10;;
3133;SDS011;1577;49.912;10.924;2023-06-26T13:01:02;22.97;;;3.30;;
3133;SDS011;1577;49.912;10.924;2023-06-26T13:03:29;23.50;;;3.93;;
3133;SDS011;1577;49.912;10.924;2023-06-26T13:05:55;22.77;;;3.20;;
3133;SDS011;1577;49.912;10.924;2023-06-26T13:08:21;23.30;;;3.77;;
3133;SDS011;1577;49.912;10.924;2023-06-26T13:10:46;23.03;;;3.40;;
3133;SDS011;1577;49.912;10.924;2023-06-26T13:13:12;22.60;;;3.67;;
3133;SDS011;1577;49.912;10.924;2023-06-26T13:15:37;24.57;;;3.70;;
3133;SDS011;1577;49.912;10.924;2023-06-26T13:18:03;24.03;;;4.07;;
3133;SDS011;1577;49.912;10.924;2023-06-26T13:20:29;24.50;;;3.83;;
3133;SDS011;1577;49.912;10.924;2023-06-26T13:22:54;24.73;;;3.70;;
3133;SDS011;1577;49.912;10.924;2023-06-26T13:25:21;23.90;;;3.80;;
3133;SDS011;1577;49.912;10.924;2023-06-26T13:27:47;22.57;;;3.50;;
3133;SDS011;1577;49.912;10.924;2023-06-26T13:30:13;23.60;;;4.10;;
3133;SDS011;1577;49.912;10.924;2023-06-26T13:32:40;23.40;;;4.07;;
3133;SDS011;1577;49.912;10.924;2023-06-26T13:35:05;22.17;;;3.43;;
3133;SDS011;1577;49.912;10.924;2023-06-26T13:37:32;22.40;;;3.53;;
3133;SDS011;1577;49.912;10.924;2023-06-26T13:39:59;25.60;;;4.30;;
3133;SDS011;1577;49.912;10.924;2023-06-26T13:42:26;24.30;;;3.80;;
3133;SDS011;1577;49.912;10.924;2023-06-26T13:44:51;25.50;;;4.37;;
3133;SDS011;1577;49.912;10.924;2023-06-26T13:47:20;21.93;;;3.30;;
3133;SDS011;1577;49.912;10.924;2023-06-26T13:49:46;23.77;;;3.67;;
3133;SDS011;1577;49.912;10.924;2023-06-26T13:52:15;24.90;;;4.10;;
3133;SDS011;1577;49.912;10.924;2023-06-26T13:54:41;23.47;;;3.90;;
3133;SDS011;1577;49.912;10.924;2023-06-26T13:57:07;23.97;;;4.30;;
3133;SDS011;1577;49.912;10.924;2023-06-26T13:59:33;23.30;;;4.00;;
3133;SDS011;1577;49.912;10.924;2023-06-26T14:01:59;25.73;;;4.40;;
3133;SDS011;1577;49.912;10.924;2023-06-26T14:04:25;23.47;;;4.00;;
3133;SDS011;1577;49.912;10.924;2023-06-26T14:06:52;23.63;;;4.00;;
3133;SDS011;1577;49.912;10.924;2023-06-26T14:09:17;22.80;;;3.80;;
3133;SDS011;1577;49.912;10.924;2023-06-26T14:11:43;25.20;;;4.10;;
3133;SDS011;1577;49.912;10.924;2023-06-26T14:14:09;23.80;;;4.47;;
3133;SDS011;1577;49.912;10.924;2023-06-26T14:16:35;28.23;;;3.90;;
3133;SDS011;1577;49.912;10.924;2023-06-26T14:19:00;23.37;;;3.63;;
3133;SDS011;1577;49.912;10.924;2023-06-26T14:21:26;23.23;;;3.77;;
3133;SDS011;1577;49.912;10.924;2023-06-26T14:23:53;24.87;;;4.70;;
3133;SDS011;1577;49.912;10.924;2023-06-26T14:26:19;23.00;;;3.97;;
3133;SDS011;1577;49.912;10.924;2023-06-26T14:28:45;23.20;;;4.10;;
3133;SDS011;1577;49.912;10.924;2023-06-26T14:31:11;26.07;;;3.90;;
3133;SDS011;1577;49.912;10.924;2023-06-26T14:33:37;23.17;;;4.20;;
3133;SDS011;1577;49.912;10.924;2023-06-26T14:36:03;25.00;;;4.27;;
3133;SDS011;1577;49.912;10.924;2023-06-26T14:38:28;24.27;;;4.17;;
3133;SDS011;1577;49.912;10.924;2023-06-26T14:40:54;25.40;;;4.00;;
3133;SDS011;1577;49.912;10.924;2023-06-26T14:43:19;24.20;;;4.33;;
3133;SDS011;1577;49.912;10.924;2023-06-26T14:45:46;22.87;;;4.13;;
3133;SDS011;1577;49.912;10.924;2023-06-26T14:48:12;26.60;;;4.57;;
3133;SDS011;1577;49.912;10.924;2023-06-26T14:50:37;24.90;;;5.10;;
3133;SDS011;1577;49.912;10.924;2023-06-26T14:53:03;24.00;;;4.93;;
3133;SDS011;1577;49.912;10.924;2023-06-26T14:55:32;24.27;;;4.70;;
3133;SDS011;1577;49.912;10.924;2023-06-26T14:57:58;23.93;;;4.60;;
3133;SDS011;1577;49.912;10.924;2023-06-26T15:00:24;24.33;;;4.53;;
3133;SDS011;1577;49.912;10.924;2023-06-26T15:02:51;24.97;;;5.27;;
3133;SDS011;1577;49.912;10.924;2023-06-26T15:05:18;24.97;;;4.50;;